createdAt,value
2023-03-15T00:06:01.497Z,2.56
2023-03-15T00:12:43.833Z,2.57
2023-03-15T00:19:26.232Z,2.57
2023-03-15T00:26:08.488Z,2.57
2023-03-15T00:32:54.022Z,2.59
2023-03-15T00:39:37.968Z,2.61
2023-03-15T00:46:23.835Z,2.63
2023-03-15T00:53:06.145Z,2.65
2023-03-15T00:59:48.816Z,2.70
2023-03-15T01:06:31.120Z,2.72
2023-03-15T01:13:14.895Z,2.72
2023-03-15T01:19:58.716Z,2.70
2023-03-15T01:26:41.259Z,2.67
2023-03-15T01:33:26.023Z,2.64
2023-03-15T01:40:14.005Z,2.60
2023-03-15T01:46:59.084Z,2.58
2023-03-15T01:53:46.186Z,2.55
2023-03-15T02:00:29.067Z,2.52
2023-03-15T02:07:20.526Z,2.48
2023-03-15T02:14:05.171Z,2.44
2023-03-15T02:21:15.157Z,2.37
2023-03-15T02:27:58.376Z,2.29
2023-03-15T02:34:40.612Z,2.19
2023-03-15T02:41:36.631Z,2.13
2023-03-15T02:48:19.278Z,2.05
2023-03-15T02:55:02.278Z,2.00
2023-03-15T03:01:46.042Z,1.96
2023-03-15T03:08:28.453Z,1.93
2023-03-15T03:15:11.758Z,1.88
2023-03-15T03:21:54.963Z,1.84
2023-03-15T03:28:37.408Z,1.79
2023-03-15T03:35:20.741Z,1.76
2023-03-15T03:42:03.425Z,1.72
2023-03-15T03:48:45.993Z,1.67
2023-03-15T03:55:28.350Z,1.63
2023-03-15T04:02:11.127Z,1.58
2023-03-15T04:08:59.062Z,1.55
2023-03-15T04:15:48.809Z,1.53
2023-03-15T04:22:32.311Z,1.53
2023-03-15T04:29:38.000Z,1.57
2023-03-15T04:36:56.645Z,1.60
2023-03-15T04:44:06.673Z,1.61
2023-03-15T04:51:11.925Z,1.60
2023-03-15T04:58:17.855Z,1.60
2023-03-15T05:05:29.500Z,1.59
2023-03-15T05:12:22.028Z,1.62
2023-03-15T05:19:39.603Z,1.64
2023-03-15T05:26:54.260Z,1.64
2023-03-15T05:33:36.702Z,1.65
2023-03-15T05:40:37.478Z,1.65
2023-03-15T05:47:34.187Z,1.63
2023-03-15T05:54:23.329Z,1.59
2023-03-15T06:01:21.381Z,1.55
2023-03-15T06:08:24.385Z,1.59
2023-03-15T06:15:08.454Z,1.64
2023-03-15T06:21:51.438Z,1.74
2023-03-15T06:28:57.493Z,1.82
2023-03-15T06:35:41.107Z,1.86
2023-03-15T06:42:23.643Z,1.88
2023-03-15T06:49:06.149Z,1.89
2023-03-15T06:55:50.747Z,1.97
2023-03-15T07:02:38.032Z,2.21
2023-03-15T07:09:20.568Z,2.44
2023-03-15T07:16:03.038Z,2.56
2023-03-15T07:22:45.952Z,2.70
2023-03-15T07:29:28.275Z,2.85
2023-03-15T07:36:10.608Z,3.06
2023-03-15T07:42:52.931Z,3.20
2023-03-15T07:49:36.513Z,3.33
2023-03-15T07:56:19.793Z,3.42
2023-03-15T08:03:02.521Z,3.38
2023-03-15T08:09:44.964Z,3.46
2023-03-15T08:17:42.648Z,3.61
2023-03-15T08:24:42.545Z,3.78
2023-03-15T08:31:24.905Z,3.90
2023-03-15T08:38:07.538Z,3.84
2023-03-15T08:44:49.758Z,3.89
2023-03-15T08:51:32.291Z,3.77
2023-03-15T08:58:14.503Z,3.83
2023-03-15T09:04:56.808Z,3.93
2023-03-15T09:11:39.240Z,3.89
2023-03-15T09:18:22.314Z,3.82
2023-03-15T09:25:05.398Z,3.78
2023-03-15T09:31:47.642Z,3.74
2023-03-15T09:38:29.946Z,3.86
2023-03-15T09:46:15.692Z,4.14
2023-03-15T09:53:14.049Z,4.22
2023-03-15T09:59:58.884Z,4.29
2023-03-15T10:06:47.661Z,4.24
2023-03-15T10:14:12.256Z,4.18
2023-03-15T10:21:27.300Z,4.12
2023-03-15T10:28:26.038Z,4.10
2023-03-15T10:35:18.102Z,4.16
2023-03-15T10:42:00.480Z,4.16
2023-03-15T10:49:15.065Z,4.23
2023-03-15T10:56:07.692Z,4.25
2023-03-15T11:03:00.860Z,4.31
2023-03-15T11:09:58.894Z,4.44
2023-03-15T11:16:41.132Z,4.56
2023-03-15T11:23:36.254Z,4.55
2023-03-15T11:30:30.275Z,4.64
2023-03-15T11:37:56.778Z,4.75
2023-03-15T11:44:50.449Z,4.83
2023-03-15T11:51:36.566Z,5.00
2023-03-15T11:58:36.135Z,5.75
2023-03-15T12:06:04.308Z,6.48
2023-03-15T12:12:56.739Z,6.42
2023-03-15T12:19:39.072Z,6.06
2023-03-15T12:27:03.270Z,5.69
2023-03-15T12:33:54.092Z,5.36
2023-03-15T12:40:52.807Z,5.16
2023-03-15T12:47:47.809Z,5.14
2023-03-15T12:54:46.945Z,5.22
2023-03-15T13:01:29.389Z,5.54
2023-03-15T13:08:29.906Z,5.87
2023-03-15T13:15:19.322Z,5.72
2023-03-15T13:22:22.574Z,5.46
2023-03-15T13:29:17.744Z,5.25
2023-03-15T13:36:12.160Z,5.50
2023-03-15T13:43:01.960Z,5.90
2023-03-15T13:49:44.195Z,6.21
2023-03-15T13:56:43.721Z,6.74
2023-03-15T14:03:29.566Z,6.91
2023-03-15T14:10:29.931Z,6.77
2023-03-15T14:17:27.329Z,6.80
2023-03-15T14:24:17.755Z,7.31
2023-03-15T14:31:00.939Z,7.64
2023-03-15T14:37:44.187Z,8.13
2023-03-15T14:44:26.435Z,8.24
2023-03-15T14:51:19.126Z,7.92
2023-03-15T14:58:12.499Z,7.67
2023-03-15T15:04:54.712Z,7.51
2023-03-15T15:11:36.916Z,7.38
2023-03-15T15:18:19.798Z,7.08
2023-03-15T15:25:02.550Z,6.96
2023-03-15T15:31:45.961Z,7.03
2023-03-15T15:38:38.528Z,7.08
2023-03-15T15:45:21.440Z,7.04
2023-03-15T15:52:04.496Z,6.80
2023-03-15T15:58:47.447Z,6.47
2023-03-15T16:05:31.439Z,6.23
2023-03-15T16:12:16.450Z,6.03
2023-03-15T16:18:58.902Z,5.74
2023-03-15T16:25:41.720Z,5.45
2023-03-15T16:32:41.124Z,5.19
2023-03-15T16:39:26.319Z,4.99
2023-03-15T16:46:16.271Z,4.79
2023-03-15T16:53:02.640Z,4.61
2023-03-15T16:59:44.964Z,4.42
2023-03-15T17:06:28.076Z,4.24
2023-03-15T17:13:14.878Z,4.02
2023-03-15T17:19:57.615Z,3.83
2023-03-15T17:26:41.862Z,3.61
2023-03-15T17:33:25.996Z,3.46
2023-03-15T17:40:31.685Z,3.27
2023-03-15T17:47:13.985Z,3.12
2023-03-15T17:53:57.837Z,3.03
2023-03-15T18:00:42.099Z,2.94
2023-03-15T18:07:28.700Z,2.80
2023-03-15T18:14:14.296Z,2.72
2023-03-15T18:20:56.568Z,2.65
2023-03-15T18:27:38.904Z,2.56
2023-03-15T18:34:23.151Z,2.42
2023-03-15T18:41:18.937Z,2.30
2023-03-15T18:48:02.679Z,2.15
2023-03-15T18:54:45.017Z,2.03
2023-03-15T19:01:27.716Z,1.88
2023-03-15T19:08:10.153Z,1.70
2023-03-15T19:14:52.403Z,1.56
2023-03-15T19:21:34.733Z,1.41
2023-03-15T19:28:17.413Z,1.29
2023-03-15T19:35:00.123Z,1.17
2023-03-15T19:41:44.439Z,1.09
2023-03-15T19:48:26.900Z,1.06
2023-03-15T19:55:09.454Z,0.97
2023-03-15T20:01:52.909Z,0.90
2023-03-15T20:08:36.064Z,0.85
2023-03-15T20:15:19.439Z,0.79
2023-03-15T20:22:01.967Z,0.75
2023-03-15T20:28:45.497Z,0.71
2023-03-15T20:35:28.525Z,0.70
2023-03-15T20:42:11.060Z,0.66
2023-03-15T20:48:53.365Z,0.60
2023-03-15T20:55:35.659Z,0.54
2023-03-15T21:02:19.297Z,0.48
2023-03-15T21:09:01.548Z,0.42
2023-03-15T21:15:47.807Z,0.39
2023-03-15T21:22:30.032Z,0.32
2023-03-15T21:29:12.373Z,0.26
2023-03-15T21:35:57.194Z,0.20
2023-03-15T21:42:40.870Z,0.14
2023-03-15T21:49:23.220Z,0.08
2023-03-15T21:56:05.891Z,0.01
2023-03-15T22:02:48.304Z,-0.03
2023-03-15T22:09:30.542Z,-0.10
2023-03-15T22:16:13.432Z,-0.15
2023-03-15T22:22:55.610Z,-0.19
2023-03-15T22:29:39.561Z,-0.25
2023-03-15T22:36:23.028Z,-0.29
2023-03-15T22:43:07.543Z,-0.33
2023-03-15T22:49:50.164Z,-0.37
2023-03-15T22:56:32.426Z,-0.38
2023-03-15T23:03:15.455Z,-0.40
2023-03-15T23:09:57.647Z,-0.43
2023-03-15T23:16:39.831Z,-0.45
2023-03-15T23:23:22.241Z,-0.50
2023-03-15T23:30:06.929Z,-0.55
2023-03-15T23:36:50.214Z,-0.57
2023-03-15T23:43:33.700Z,-0.60
2023-03-15T23:50:17.307Z,-0.61
2023-03-15T23:56:59.634Z,-0.64
